createdAt,value
2018-03-16T00:00:31.995Z,14.73
2018-03-16T00:03:00.640Z,16.00
2018-03-16T00:05:29.212Z,14.23
2018-03-16T00:07:58.543Z,14.90
2018-03-16T00:10:29.096Z,13.73
2018-03-16T00:12:58.745Z,14.63
2018-03-16T00:15:33.418Z,15.20
2018-03-16T00:18:01.988Z,14.13
2018-03-16T00:20:30.658Z,15.30
2018-03-16T00:22:59.271Z,16.57
2018-03-16T00:25:27.804Z,15.17
2018-03-16T00:27:56.404Z,14.87
2018-03-16T00:30:25.730Z,14.90
2018-03-16T00:32:54.284Z,14.77
2018-03-16T00:35:22.879Z,15.13
2018-03-16T00:37:52.202Z,14.83
2018-03-16T00:40:21.597Z,14.53
2018-03-16T00:42:50.892Z,14.30
2018-03-16T00:45:20.098Z,15.13
2018-03-16T00:47:49.435Z,15.23
2018-03-16T00:50:18.103Z,14.87
2018-03-16T00:52:46.821Z,14.97
2018-03-16T00:55:15.393Z,16.13
2018-03-16T00:57:44.079Z,16.07
2018-03-16T01:00:12.679Z,16.00
2018-03-16T01:02:41.307Z,15.53
2018-03-16T01:05:10.211Z,16.17
2018-03-16T01:07:39.566Z,16.00
2018-03-16T01:10:08.116Z,15.37
2018-03-16T01:12:37.517Z,14.03
2018-03-16T01:15:06.101Z,15.37
2018-03-16T01:17:35.469Z,15.30
2018-03-16T01:20:03.741Z,15.50
2018-03-16T01:22:32.188Z,16.17
2018-03-16T01:25:00.805Z,14.53
2018-03-16T01:27:29.343Z,15.23
2018-03-16T01:29:58.675Z,16.47
2018-03-16T01:32:29.363Z,17.30
2018-03-16T01:34:57.910Z,15.33
2018-03-16T01:37:26.469Z,15.60
2018-03-16T01:39:54.993Z,15.87
2018-03-16T01:42:23.540Z,15.33
2018-03-16T01:44:52.094Z,16.63
2018-03-16T01:47:20.640Z,15.77
2018-03-16T01:49:49.229Z,16.73
2018-03-16T01:52:17.812Z,15.97
2018-03-16T01:54:49.929Z,16.57
2018-03-16T01:57:18.520Z,17.30
2018-03-16T01:59:47.132Z,16.40
2018-03-16T02:02:15.660Z,16.97
2018-03-16T02:04:44.180Z,17.30
2018-03-16T02:07:13.432Z,17.27
2018-03-16T02:09:41.951Z,17.53
2018-03-16T02:12:10.459Z,17.97
2018-03-16T02:14:38.972Z,19.07
2018-03-16T02:17:07.480Z,16.67
2018-03-16T02:19:35.976Z,18.07
2018-03-16T02:22:04.510Z,19.80
2018-03-16T02:24:33.003Z,18.83
2018-03-16T02:27:01.520Z,19.17
2018-03-16T02:29:30.003Z,22.03
2018-03-16T02:31:58.552Z,17.73
2018-03-16T02:34:27.087Z,20.90
2018-03-16T02:36:55.581Z,20.00
2018-03-16T02:39:24.090Z,20.90
2018-03-16T02:41:52.578Z,21.80
2018-03-16T02:44:21.080Z,20.93
2018-03-16T02:46:49.579Z,20.00
2018-03-16T02:49:18.291Z,21.53
2018-03-16T02:51:46.807Z,21.47
2018-03-16T02:54:16.043Z,20.10
2018-03-16T02:56:44.558Z,19.87
2018-03-16T02:59:13.039Z,23.23
2018-03-16T03:01:41.573Z,20.97
2018-03-16T03:04:09.986Z,21.47
2018-03-16T03:06:38.509Z,19.27
2018-03-16T03:09:07.008Z,18.63
2018-03-16T03:11:36.288Z,20.47
2018-03-16T03:14:05.048Z,22.37
2018-03-16T03:16:33.548Z,24.03
2018-03-16T03:19:02.051Z,23.40
2018-03-16T03:21:30.542Z,24.13
2018-03-16T03:23:59.061Z,22.63
2018-03-16T03:26:27.577Z,25.07
2018-03-16T03:29:00.052Z,22.50
2018-03-16T03:31:28.574Z,25.10
2018-03-16T03:33:57.051Z,23.10
2018-03-16T03:36:25.562Z,21.97
2018-03-16T03:38:54.050Z,24.43
2018-03-16T03:41:23.342Z,23.33
2018-03-16T03:43:52.591Z,20.50
2018-03-16T03:46:21.103Z,24.00
2018-03-16T03:48:49.585Z,22.23
2018-03-16T03:51:18.068Z,22.90
2018-03-16T03:53:46.585Z,24.33
2018-03-16T03:56:15.836Z,23.90
2018-03-16T03:58:44.394Z,20.73
2018-03-16T04:01:12.899Z,23.63
2018-03-16T04:03:41.381Z,26.43
2018-03-16T04:06:09.888Z,24.80
2018-03-16T04:08:38.113Z,20.20
2018-03-16T04:11:06.631Z,20.77
2018-03-16T04:13:35.104Z,26.27
2018-03-16T04:16:03.707Z,26.73
2018-03-16T04:18:32.191Z,25.87
2018-03-16T04:21:00.705Z,26.07
2018-03-16T04:23:29.996Z,25.30
2018-03-16T04:25:58.567Z,25.17
2018-03-16T04:28:27.111Z,22.77
2018-03-16T04:30:55.642Z,24.37
2018-03-16T04:33:24.170Z,25.30
2018-03-16T04:35:52.811Z,24.00
2018-03-16T04:38:21.484Z,22.83
2018-03-16T04:40:49.961Z,23.73
2018-03-16T04:43:18.467Z,22.57
2018-03-16T04:45:46.958Z,21.53
2018-03-16T04:48:16.548Z,23.13
2018-03-16T04:50:45.059Z,27.60
2018-03-16T04:53:13.543Z,26.10
2018-03-16T04:55:42.059Z,26.53
2018-03-16T04:58:11.313Z,24.03
2018-03-16T05:00:39.825Z,27.73
2018-03-16T05:03:08.344Z,21.20
2018-03-16T05:05:36.865Z,24.93
2018-03-16T05:08:05.381Z,20.87
2018-03-16T05:10:33.885Z,23.57
2018-03-16T05:13:02.402Z,26.80
2018-03-16T05:15:30.886Z,23.20
2018-03-16T05:17:59.509Z,25.30
2018-03-16T05:20:28.143Z,24.60
2018-03-16T05:22:56.643Z,26.53
2018-03-16T05:25:25.125Z,25.50
2018-03-16T05:27:53.635Z,26.57
2018-03-16T05:30:22.143Z,28.73
2018-03-16T05:32:51.402Z,24.80
2018-03-16T05:35:19.911Z,25.53
2018-03-16T05:37:48.387Z,22.47
2018-03-16T05:40:16.896Z,24.23
2018-03-16T05:42:45.471Z,24.23
2018-03-16T05:45:13.989Z,28.87
2018-03-16T05:47:43.245Z,28.17
2018-03-16T05:50:11.780Z,29.43
2018-03-16T05:52:40.321Z,26.63
2018-03-16T05:55:08.822Z,24.77
2018-03-16T05:57:37.366Z,27.67
2018-03-16T06:00:05.958Z,25.87
2018-03-16T06:02:34.671Z,29.63
2018-03-16T06:05:03.171Z,27.03
2018-03-16T06:07:32.456Z,27.67
2018-03-16T06:10:00.946Z,23.93
2018-03-16T06:12:29.474Z,24.87
2018-03-16T06:14:57.951Z,27.37
2018-03-16T06:17:26.455Z,26.47
2018-03-16T06:19:54.957Z,28.53
2018-03-16T06:22:23.446Z,24.60
2018-03-16T06:24:51.969Z,27.50
2018-03-16T06:27:20.452Z,26.13
2018-03-16T06:29:49.738Z,25.90
2018-03-16T06:32:18.232Z,25.93
2018-03-16T06:34:46.752Z,27.03
2018-03-16T06:37:15.257Z,24.13
2018-03-16T06:39:43.801Z,27.53
2018-03-16T06:42:13.044Z,27.63
2018-03-16T06:44:41.739Z,25.40
2018-03-16T06:47:11.268Z,25.87
2018-03-16T06:49:39.771Z,31.90
2018-03-16T06:52:08.276Z,40.17
2018-03-16T06:54:37.746Z,43.53
2018-03-16T06:57:07.035Z,28.97
2018-03-16T06:59:35.632Z,34.43
2018-03-16T07:02:04.147Z,32.77
2018-03-16T07:04:32.655Z,31.90
2018-03-16T07:07:01.147Z,29.80
2018-03-16T07:09:29.658Z,26.27
2018-03-16T07:11:58.167Z,30.77
2018-03-16T07:14:26.654Z,30.00
2018-03-16T07:16:55.172Z,34.07
2018-03-16T07:19:23.659Z,43.97
2018-03-16T07:21:52.185Z,35.80
2018-03-16T07:24:20.672Z,31.73
2018-03-16T07:26:49.195Z,28.93
2018-03-16T07:29:18.337Z,32.37
2018-03-16T07:31:46.832Z,28.50
2018-03-16T07:34:18.987Z,28.07
2018-03-16T07:36:52.952Z,27.53
2018-03-16T07:39:28.243Z,31.17
2018-03-16T07:41:56.874Z,27.13
2018-03-16T07:44:29.754Z,33.27
2018-03-16T07:47:06.124Z,33.17
2018-03-16T07:49:35.754Z,26.23
2018-03-16T07:52:04.485Z,29.13
2018-03-16T07:54:33.312Z,28.23
2018-03-16T07:57:03.272Z,27.57
2018-03-16T07:59:32.440Z,26.00
2018-03-16T08:02:05.285Z,30.03
2018-03-16T08:04:37.264Z,29.30
2018-03-16T08:07:06.210Z,30.57
2018-03-16T08:09:35.970Z,30.57
2018-03-16T08:12:06.066Z,31.87
2018-03-16T08:14:35.926Z,27.57
2018-03-16T08:17:04.459Z,26.83
2018-03-16T08:19:32.963Z,30.27
2018-03-16T08:22:01.444Z,28.37
2018-03-16T08:24:29.952Z,34.17
2018-03-16T08:26:58.902Z,34.67
2018-03-16T08:29:27.878Z,32.03
2018-03-16T08:31:57.845Z,31.17
2018-03-16T08:34:26.857Z,29.70
2018-03-16T08:36:55.869Z,27.50
2018-03-16T08:39:24.700Z,27.20
2018-03-16T08:41:55.026Z,27.30
2018-03-16T08:44:24.191Z,27.33
2018-03-16T08:46:53.895Z,24.33
2018-03-16T08:49:23.770Z,27.30
2018-03-16T08:51:53.839Z,24.47
2018-03-16T08:54:24.314Z,23.50
2018-03-16T08:56:54.050Z,23.23
2018-03-16T08:59:23.972Z,24.00
2018-03-16T09:01:52.784Z,21.60
2018-03-16T09:04:21.298Z,22.30
2018-03-16T09:06:49.779Z,21.90
2018-03-16T09:09:18.619Z,19.93
2018-03-16T09:11:47.550Z,19.37
2018-03-16T09:14:18.458Z,19.97
2018-03-16T09:16:48.373Z,20.80
2018-03-16T09:19:17.587Z,21.77
2018-03-16T09:21:47.780Z,20.27
2018-03-16T09:24:17.164Z,18.37
2018-03-16T09:26:46.226Z,18.30
2018-03-16T09:29:17.495Z,16.20
2018-03-16T09:31:47.322Z,16.73
2018-03-16T09:34:16.550Z,15.10
2018-03-16T09:36:45.112Z,15.73
2018-03-16T09:42:17.617Z,14.23
2018-03-16T09:44:48.360Z,15.37
2018-03-16T09:47:18.043Z,14.63
2018-03-16T09:49:46.846Z,14.27
2018-03-16T09:52:15.544Z,15.03
2018-03-16T09:54:55.453Z,15.63
2018-03-16T09:57:38.188Z,15.50
2018-03-16T10:00:06.759Z,15.83
2018-03-16T10:02:36.559Z,15.53
2018-03-16T10:05:05.358Z,15.00
2018-03-16T10:07:34.727Z,14.77
2018-03-16T10:10:03.314Z,14.50
2018-03-16T10:12:31.965Z,12.83
2018-03-16T10:15:00.653Z,15.03
2018-03-16T10:17:29.506Z,15.30
2018-03-16T10:19:58.976Z,14.57
2018-03-16T10:22:27.604Z,17.60
2018-03-16T10:24:56.288Z,18.20
2018-03-16T10:27:25.144Z,16.63
2018-03-16T10:29:53.920Z,16.87
2018-03-16T10:32:22.717Z,15.40
2018-03-16T10:34:51.371Z,15.90
2018-03-16T10:37:20.336Z,17.33
2018-03-16T10:39:48.938Z,17.57
2018-03-16T10:42:17.511Z,16.50
2018-03-16T10:44:46.915Z,18.07
2018-03-16T11:03:51.384Z,20.47
2018-03-16T11:06:25.327Z,22.30
2018-03-16T11:08:53.814Z,21.17
2018-03-16T11:11:24.043Z,20.50
2018-03-16T11:13:53.354Z,19.23
2018-03-16T11:16:22.634Z,19.23
2018-03-16T11:18:54.141Z,18.67
2018-03-16T11:21:24.309Z,20.10
2018-03-16T11:23:53.200Z,20.53
2018-03-16T11:26:22.459Z,18.47
2018-03-16T11:28:52.156Z,18.57
2018-03-16T11:31:22.069Z,19.57
2018-03-16T11:33:50.580Z,18.80
2018-03-16T11:36:19.160Z,18.57
2018-03-16T11:38:49.197Z,21.47
2018-03-16T11:41:18.184Z,24.13
2018-03-16T11:43:47.007Z,19.47
2018-03-16T11:46:15.840Z,20.40
2018-03-16T11:48:44.975Z,21.63
2018-03-16T11:51:14.186Z,20.87
2018-03-16T11:53:43.150Z,20.80
2018-03-16T11:56:12.330Z,18.87
2018-03-16T11:58:41.892Z,17.00
2018-03-16T12:01:10.450Z,17.70
2018-03-16T12:03:39.224Z,17.60
2018-03-16T12:06:08.111Z,17.53
2018-03-16T12:08:42.961Z,16.67
2018-03-16T12:11:11.926Z,16.33
2018-03-16T12:13:40.893Z,17.00
2018-03-16T12:16:10.597Z,16.70
2018-03-16T12:18:40.328Z,14.93
2018-03-16T12:21:10.045Z,16.93
2018-03-16T12:23:40.034Z,15.50
2018-03-16T12:26:09.181Z,15.10
2018-03-16T12:28:49.695Z,19.43
2018-03-16T12:31:08.661Z,18.47
2018-03-16T12:33:37.185Z,15.50
2018-03-16T12:36:10.867Z,16.50
2018-03-16T12:38:39.414Z,14.37
2018-03-16T12:41:07.963Z,14.93
2018-03-16T12:43:37.213Z,14.43
2018-03-16T12:46:05.745Z,14.53
2018-03-16T12:48:36.252Z,19.43
2018-03-16T12:51:06.097Z,22.00
2018-03-16T12:53:35.183Z,27.97
2018-03-16T12:56:04.148Z,31.27
2018-03-16T12:58:33.095Z,31.57
2018-03-16T13:01:02.045Z,32.83
2018-03-16T13:03:30.774Z,32.70
2018-03-16T13:05:59.599Z,32.53
2018-03-16T13:08:28.838Z,30.33
2018-03-16T13:10:58.330Z,29.47
2018-03-16T13:13:27.967Z,30.10
2018-03-16T13:15:56.915Z,31.07
2018-03-16T13:18:26.640Z,31.90
2018-03-16T13:20:55.323Z,34.20
2018-03-16T13:23:26.132Z,33.40
2018-03-16T13:25:54.777Z,29.20
2018-03-16T13:28:23.403Z,28.83
2018-03-16T13:30:52.156Z,29.27
2018-03-16T13:33:21.593Z,25.97
2018-03-16T13:35:50.240Z,26.53
2018-03-16T13:38:18.918Z,26.50
2018-03-16T13:40:47.206Z,25.00
2018-03-16T13:43:15.805Z,24.53
2018-03-16T13:45:44.407Z,23.20
2018-03-16T13:48:13.042Z,25.70
2018-03-16T13:50:41.823Z,24.67
2018-03-16T13:53:10.509Z,24.53
2018-03-16T13:55:39.084Z,26.33
2018-03-16T13:58:07.729Z,24.93
2018-03-16T14:00:36.335Z,23.10
2018-03-16T14:03:05.724Z,23.17
2018-03-16T14:05:34.293Z,23.07
2018-03-16T14:08:03.018Z,23.03
2018-03-16T14:10:32.342Z,23.67
2018-03-16T14:13:00.895Z,23.27
2018-03-16T14:15:29.550Z,22.43
2018-03-16T14:17:58.138Z,23.93
2018-03-16T14:20:26.776Z,22.17
2018-03-16T14:22:55.431Z,22.60
2018-03-16T14:25:24.118Z,20.70
2018-03-16T14:27:52.694Z,20.80
2018-03-16T14:30:22.096Z,20.50
2018-03-16T14:32:50.663Z,19.63
2018-03-16T14:35:19.281Z,19.27
2018-03-16T14:37:47.859Z,20.47
2018-03-16T14:40:16.524Z,24.50
2018-03-16T14:42:45.117Z,19.63
2018-03-16T14:45:13.735Z,20.80
2018-03-16T14:47:43.104Z,21.07
2018-03-16T14:50:11.724Z,21.33
2018-03-16T14:52:41.174Z,19.57
2018-03-16T14:55:09.716Z,16.97
2018-03-16T14:57:38.299Z,9.13
2018-03-16T15:00:13.100Z,6.60
2018-03-16T15:02:41.713Z,4.43
2018-03-16T15:05:10.313Z,4.53
2018-03-16T15:07:39.668Z,4.27
2018-03-16T15:10:08.383Z,4.30
2018-03-16T15:12:37.172Z,4.60
2018-03-16T15:15:06.573Z,3.57
2018-03-16T15:17:35.193Z,3.57
2018-03-16T15:20:03.517Z,3.43
2018-03-16T15:22:32.103Z,3.33
2018-03-16T15:25:00.738Z,3.90
2018-03-16T15:27:30.098Z,14.47
2018-03-16T15:29:58.788Z,11.97
2018-03-16T15:32:27.398Z,7.17
2018-03-16T15:34:56.005Z,4.30
2018-03-16T15:37:24.580Z,3.83
2018-03-16T15:39:53.170Z,3.83
2018-03-16T15:42:21.733Z,3.80
2018-03-16T15:44:53.919Z,3.73
2018-03-16T15:47:22.501Z,3.73
2018-03-16T15:49:51.071Z,4.00
2018-03-16T15:52:19.670Z,3.67
2018-03-16T15:54:51.998Z,4.07
2018-03-16T15:57:20.605Z,4.47
2018-03-16T15:59:49.117Z,4.63
2018-03-16T16:02:17.855Z,4.60
2018-03-16T16:04:46.469Z,4.70
2018-03-16T16:07:19.347Z,5.73
2018-03-16T16:09:48.190Z,6.07
2018-03-16T16:12:16.763Z,6.50
2018-03-16T16:14:46.087Z,6.40
2018-03-16T16:17:15.491Z,7.17
2018-03-16T16:19:44.079Z,13.90
2018-03-16T16:22:13.449Z,9.10
2018-03-16T16:24:42.125Z,7.20
2018-03-16T16:27:11.166Z,7.53
2018-03-16T16:29:39.782Z,8.80
2018-03-16T16:32:08.349Z,7.43
2018-03-16T16:34:36.972Z,7.80
2018-03-16T16:37:06.001Z,8.07
2018-03-16T16:39:34.577Z,8.37
2018-03-16T16:42:03.142Z,8.33
2018-03-16T16:44:31.756Z,8.40
2018-03-16T16:47:00.393Z,9.67
2018-03-16T16:49:33.544Z,9.67
2018-03-16T16:52:01.987Z,11.30
2018-03-16T16:54:30.600Z,11.20
2018-03-16T16:56:59.192Z,12.13
2018-03-16T16:59:27.774Z,13.93
2018-03-16T17:01:56.396Z,11.17
2018-03-16T17:04:25.733Z,11.90
2018-03-16T17:06:54.335Z,12.17
2018-03-16T17:09:23.704Z,11.57
2018-03-16T17:11:53.049Z,13.37
2018-03-16T17:14:21.649Z,12.80
2018-03-16T17:16:51.051Z,11.40
2018-03-16T17:19:19.613Z,12.90
2018-03-16T17:21:48.170Z,12.87
2018-03-16T17:24:16.753Z,11.83
2018-03-16T17:26:45.344Z,11.33
2018-03-16T17:29:13.671Z,11.90
2018-03-16T17:31:42.238Z,11.80
2018-03-16T17:34:10.829Z,11.77
2018-03-16T17:36:39.445Z,10.03
2018-03-16T17:39:07.778Z,10.37
2018-03-16T17:41:36.364Z,10.13
2018-03-16T17:44:04.641Z,9.40
2018-03-16T17:46:33.196Z,9.07
2018-03-16T17:49:01.802Z,8.77
2018-03-16T17:51:30.405Z,7.60
2018-03-16T17:53:58.969Z,7.20
2018-03-16T17:56:27.591Z,8.67
2018-03-16T17:58:56.257Z,7.80
2018-03-16T18:01:24.832Z,7.27
2018-03-16T18:03:53.400Z,7.10
2018-03-16T18:06:22.773Z,6.80
2018-03-16T18:08:51.384Z,6.20
2018-03-16T18:11:20.800Z,7.47
2018-03-16T18:13:49.990Z,7.00
2018-03-16T18:16:21.164Z,7.07
2018-03-16T18:18:55.091Z,6.57
2018-03-16T18:21:23.687Z,8.53
2018-03-16T18:23:52.257Z,6.33
2018-03-16T18:26:20.881Z,8.37
2018-03-16T18:28:49.504Z,8.53
2018-03-16T18:31:18.240Z,7.70
2018-03-16T18:33:46.793Z,7.60
2018-03-16T18:36:16.186Z,9.00
2018-03-16T18:38:44.766Z,7.90
2018-03-16T18:41:13.376Z,8.73
2018-03-16T18:43:41.966Z,8.43
2018-03-16T18:46:10.574Z,8.83
2018-03-16T18:48:39.214Z,8.87
2018-03-16T18:51:08.571Z,10.47
2018-03-16T18:53:37.184Z,15.47
2018-03-16T18:56:05.737Z,11.47
2018-03-16T18:58:34.305Z,10.97
2018-03-16T19:01:02.738Z,11.97
2018-03-16T19:03:31.281Z,9.47
2018-03-16T19:05:59.902Z,10.60
2018-03-16T19:08:28.549Z,10.47
2018-03-16T19:10:57.295Z,11.23
2018-03-16T19:13:25.857Z,9.47
2018-03-16T19:15:54.464Z,8.27
2018-03-16T19:18:23.020Z,10.13
2018-03-16T19:20:51.699Z,10.00
2018-03-16T19:23:20.309Z,10.03
2018-03-16T19:25:48.912Z,10.17
2018-03-16T19:28:17.520Z,11.10
2018-03-16T19:30:46.185Z,11.03
2018-03-16T19:33:14.988Z,10.20
2018-03-16T19:35:43.564Z,12.53
2018-03-16T19:38:12.927Z,11.70
2018-03-16T19:40:41.536Z,10.07
2018-03-16T19:43:10.093Z,11.77
2018-03-16T19:45:38.652Z,11.63
2018-03-16T19:48:08.001Z,12.07
2018-03-16T19:50:36.554Z,15.33
2018-03-16T19:53:05.130Z,12.03
2018-03-16T19:55:33.552Z,12.07
2018-03-16T19:58:02.048Z,12.17
2018-03-16T20:00:30.634Z,13.03
2018-03-16T20:02:59.278Z,13.47
2018-03-16T20:05:27.856Z,15.17
2018-03-16T20:07:56.507Z,15.93
2018-03-16T20:10:25.038Z,13.57
2018-03-16T20:12:53.666Z,12.63
2018-03-16T20:15:22.286Z,13.03
2018-03-16T20:17:51.680Z,13.53
2018-03-16T20:20:20.238Z,14.17
2018-03-16T20:22:48.854Z,14.43
2018-03-16T20:25:17.488Z,14.07
2018-03-16T20:27:46.120Z,14.57
2018-03-16T20:30:14.760Z,14.83
2018-03-16T20:32:43.215Z,14.70
2018-03-16T20:35:11.818Z,15.37
2018-03-16T20:37:40.459Z,15.77
2018-03-16T20:40:09.076Z,14.47
2018-03-16T20:42:37.659Z,14.17
2018-03-16T20:45:05.991Z,13.77
2018-03-16T20:47:34.642Z,14.97
2018-03-16T20:50:03.232Z,14.73
2018-03-16T20:52:31.868Z,20.97
2018-03-16T20:55:00.471Z,18.50
2018-03-16T20:57:29.066Z,17.83
2018-03-16T20:59:57.667Z,17.53
2018-03-16T21:02:27.044Z,18.30
2018-03-16T21:04:55.618Z,18.77
2018-03-16T21:07:24.120Z,18.17
2018-03-16T21:09:52.777Z,16.67
2018-03-16T21:12:21.315Z,19.40
2018-03-16T21:14:50.673Z,18.67
2018-03-16T21:17:19.226Z,20.97
2018-03-16T21:19:47.846Z,19.63
2018-03-16T21:22:16.434Z,18.73
2018-03-16T21:24:45.025Z,18.73
2018-03-16T21:27:13.608Z,20.80
2018-03-16T21:29:42.202Z,19.87
2018-03-16T21:32:10.793Z,21.27
2018-03-16T21:34:39.400Z,19.27
2018-03-16T21:37:07.973Z,21.53
2018-03-16T21:39:36.558Z,21.53
2018-03-16T21:42:05.257Z,20.97
2018-03-16T21:44:33.864Z,21.73
2018-03-16T21:47:02.483Z,21.80
2018-03-16T21:49:31.045Z,21.47
2018-03-16T21:51:59.703Z,21.67
2018-03-16T21:54:29.056Z,20.10
2018-03-16T21:56:57.684Z,22.63
2018-03-16T21:59:26.253Z,21.77
2018-03-16T22:01:54.909Z,20.73
2018-03-16T22:04:23.515Z,22.03
2018-03-16T22:06:52.146Z,21.70
2018-03-16T22:09:21.464Z,21.67
2018-03-16T22:11:50.022Z,20.77
2018-03-16T22:14:18.635Z,21.53
2018-03-16T22:16:47.239Z,24.50
2018-03-16T22:19:15.839Z,24.80
2018-03-16T22:21:44.437Z,22.83
2018-03-16T22:24:13.043Z,21.97
2018-03-16T22:26:41.722Z,24.23
2018-03-16T22:29:10.308Z,23.10
2018-03-16T22:31:38.862Z,22.90
2018-03-16T22:34:07.438Z,24.03
2018-03-16T22:36:35.997Z,23.70
2018-03-16T22:39:04.075Z,23.47
2018-03-16T22:41:32.367Z,23.23
2018-03-16T22:44:01.803Z,24.07
2018-03-16T22:46:30.373Z,22.13
2018-03-16T22:48:58.994Z,24.20
2018-03-16T22:51:27.575Z,24.73
2018-03-16T22:53:56.219Z,25.20
2018-03-16T22:56:25.715Z,24.07
2018-03-16T22:58:55.082Z,26.07
2018-03-16T23:01:23.657Z,25.37
2018-03-16T23:03:52.393Z,24.50
2018-03-16T23:06:21.794Z,25.17
2018-03-16T23:08:51.163Z,23.70
2018-03-16T23:11:19.758Z,24.60
2018-03-16T23:13:48.345Z,25.07
2018-03-16T23:16:16.953Z,24.23
2018-03-16T23:18:45.515Z,23.43
2018-03-16T23:21:14.123Z,25.87
2018-03-16T23:23:42.778Z,24.47
2018-03-16T23:26:12.296Z,23.20
2018-03-16T23:28:40.909Z,25.17
2018-03-16T23:31:09.517Z,26.23
2018-03-16T23:33:38.108Z,24.37
2018-03-16T23:36:06.739Z,22.93
2018-03-16T23:38:35.370Z,24.47
2018-03-16T23:41:04.826Z,24.80
2018-03-16T23:43:33.446Z,23.37
2018-03-16T23:46:02.082Z,23.43
2018-03-16T23:48:30.828Z,25.10
2018-03-16T23:50:59.406Z,27.10
2018-03-16T23:53:27.955Z,25.57
2018-03-16T23:55:56.541Z,24.50
2018-03-16T23:58:41.212Z,26.30
